Time;durP1;ratioP1;P1;durP2;ratioP2;P2;SDS_P1;SDS_P2;PMS_P1;PMS_P2;Temp;Humidity;BMP_temperature;BMP_pressure;BME280_temperature;BME280_humidity;BME280_pressure;Samples;Min_cycle;Max_cycle;Signal;HPM_P1;HPM_P2
2021/03/21 00:00:08;;;;;;;8.85;4.20;;;3.30;50.70;;;;;;5071725;28;20195;-87
2021/03/21 00:02:35;;;;;;;4.30;3.90;;;3.40;52.30;;;;;;5070964;28;20226;-86
2021/03/21 00:05:02;;;;;;;4.55;4.15;;;3.10;49.40;;;;;;5071628;28;20203;-87
2021/03/21 00:07:29;;;;;;;3.80;3.38;;;3.30;50.00;;;;;;5071427;28;20204;-87
2021/03/21 00:09:55;;;;;;;4.40;3.92;;;3.20;49.10;;;;;;5071906;28;20202;-86
2021/03/21 00:12:22;;;;;;;4.70;4.20;;;3.00;48.30;;;;;;5070943;28;20625;-86
2021/03/21 00:14:48;;;;;;;4.35;3.95;;;3.10;50.10;;;;;;5071497;28;20199;-87
2021/03/21 00:17:15;;;;;;;5.40;4.78;;;3.00;49.40;;;;;;5071765;28;20203;-85
2021/03/21 00:19:42;;;;;;;6.38;4.93;;;3.20;50.80;;;;;;5071095;28;20607;-88
2021/03/21 00:22:08;;;;;;;4.30;3.90;;;3.40;50.60;;;;;;5071195;28;20560;-87
2021/03/21 00:24:35;;;;;;;6.05;4.22;;;3.40;50.30;;;;;;5071012;28;20229;-87
2021/03/21 00:27:01;;;;;;;5.50;4.40;;;3.40;50.20;;;;;;5071393;28;20215;-87
2021/03/21 00:29:28;;;;;;;5.35;4.35;;;3.40;49.90;;;;;;5071816;28;20645;-87
2021/03/21 00:31:55;;;;;;;4.20;3.80;;;3.40;50.10;;;;;;5070738;28;20195;-87
2021/03/21 00:34:21;;;;;;;4.65;4.25;;;3.40;49.70;;;;;;5070240;28;20211;-87
2021/03/21 00:36:49;;;;;;;5.07;4.15;;;3.40;50.60;;;;;;5071022;28;20199;-86
2021/03/21 00:39:15;;;;;;;5.10;4.60;;;3.50;50.60;;;;;;5071755;28;20206;-87
2021/03/21 00:41:42;;;;;;;4.93;3.90;;;3.50;50.00;;;;;;5070608;28;20208;-87
2021/03/21 00:44:08;;;;;;;7.88;6.07;;;3.50;50.70;;;;;;5070808;28;20219;-87
2021/03/21 00:46:35;;;;;;;7.57;5.10;;;3.20;50.30;;;;;;5070954;28;20613;-87
2021/03/21 00:49:01;;;;;;;6.63;4.65;;;3.20;49.50;;;;;;5070717;28;20226;-87
2021/03/21 00:51:28;;;;;;;5.15;4.38;;;3.00;49.20;;;;;;5071483;28;20253;-87
2021/03/21 00:53:56;;;;;;;5.47;3.70;;;2.80;48.80;;;;;;5070797;28;20195;-87
2021/03/21 00:56:29;;;;;;;5.43;4.43;;;2.80;48.90;;;;;;5070818;28;20195;-86
2021/03/21 00:58:58;;;;;;;4.97;4.47;;;2.80;48.70;;;;;;5071486;28;20661;-86
2021/03/21 01:01:24;;;;;;;4.95;3.72;;;3.00;49.10;;;;;;5070318;28;20206;-86
2021/03/21 01:03:51;;;;;;;4.97;4.40;;;3.00;49.70;;;;;;5070627;28;20638;-86
2021/03/21 01:06:18;;;;;;;7.20;5.15;;;2.90;48.50;;;;;;5070814;28;20202;-87
2021/03/21 01:08:45;;;;;;;6.18;4.85;;;2.90;48.70;;;;;;5071320;28;20199;-87
2021/03/21 01:11:19;;;;;;;5.75;5.20;;;2.80;48.40;;;;;;5070957;28;20195;-86
2021/03/21 01:13:46;;;;;;;5.53;4.53;;;2.80;48.70;;;;;;5070825;28;20203;-87
2021/03/21 01:16:16;;;;;;;5.72;4.97;;;2.60;48.50;;;;;;5070712;28;20215;-87
2021/03/21 01:18:42;;;;;;;5.18;3.95;;;2.90;49.60;;;;;;5070973;28;20211;-87
2021/03/21 01:21:11;;;;;;;6.72;4.97;;;2.90;48.70;;;;;;5070863;28;20274;-87
2021/03/21 01:23:38;;;;;;;5.35;4.65;;;2.90;49.00;;;;;;5069999;28;20607;-87
2021/03/21 01:26:05;;;;;;;6.78;5.15;;;3.00;50.30;;;;;;5070436;28;20195;-87
2021/03/21 01:28:35;;;;;;;4.90;4.25;;;3.00;49.30;;;;;;5071020;28;20202;-86
2021/03/21 01:31:05;;;;;;;5.22;4.10;;;3.20;50.00;;;;;;5070806;28;20260;-87
2021/03/21 01:33:33;;;;;;;7.72;5.40;;;3.50;50.60;;;;;;5070684;28;20203;-87
2021/03/21 01:36:00;;;;;;;4.75;4.25;;;3.30;49.40;;;;;;5070602;28;20199;-87
2021/03/21 01:38:27;;;;;;;4.63;4.15;;;3.30;49.10;;;;;;5071052;28;20203;-87
2021/03/21 01:40:58;;;;;;;5.78;4.50;;;3.40;49.50;;;;;;5071062;28;20211;-87
2021/03/21 01:43:29;;;;;;;5.95;4.60;;;3.50;49.30;;;;;;5070511;28;20223;-87
2021/03/21 01:45:58;;;;;;;4.88;4.30;;;3.40;49.60;;;;;;5070689;28;20257;-87
2021/03/21 01:48:35;;;;;;;5.97;4.05;;;3.10;49.10;;;;;;5074874;28;20645;-86
2021/03/21 01:51:05;;;;;;;5.45;4.05;;;3.20;49.80;;;;;;5074478;28;20202;-87
2021/03/21 01:53:37;;;;;;;5.72;4.72;;;3.00;48.60;;;;;;5073473;28;20196;-86
2021/03/21 01:56:05;;;;;;;5.80;3.85;;;2.70;48.30;;;;;;5074435;28;20199;-86
2021/03/21 01:58:33;;;;;;;5.60;4.45;;;2.70;48.80;;;;;;5074734;28;20210;-86
2021/03/21 02:01:03;;;;;;;6.60;3.97;;;3.00;49.70;;;;;;5074007;28;20297;-86
2021/03/21 02:03:30;;;;;;;5.85;4.70;;;3.10;49.50;;;;;;5069748;28;20270;-86
2021/03/21 02:06:13;;;;;;;6.25;4.57;;;2.90;49.00;;;;;;5074630;28;20203;-86
2021/03/21 02:08:47;;;;;;;5.95;4.90;;;3.00;49.80;;;;;;5074502;28;20199;-87
2021/03/21 02:11:23;;;;;;;5.32;4.40;;;2.90;48.60;;;;;;5074628;28;20202;-86
2021/03/21 02:13:59;;;;;;;8.23;4.95;;;2.80;49.00;;;;;;5072374;28;20191;-86
2021/03/21 02:16:34;;;;;;;4.97;4.53;;;3.00;49.60;;;;;;5074352;28;20199;-87
2021/03/21 02:19:19;;;;;;;4.35;3.90;;;2.90;49.00;;;;;;5074151;28;20706;-86
2021/03/21 02:21:50;;;;;;;4.20;3.80;;;3.00;49.20;;;;;;5073604;28;20199;-86
2021/03/21 02:24:47;;;;;;;5.20;4.45;;;2.90;48.70;;;;;;5073569;28;20582;-87
2021/03/21 02:27:38;;;;;;;5.85;4.35;;;2.80;49.40;;;;;;5067205;28;20203;-86
2021/03/21 02:30:11;;;;;;;4.55;3.50;;;2.70;48.80;;;;;;5054011;28;20564;-87
2021/03/21 02:32:51;;;;;;;3.80;3.35;;;2.80;48.90;;;;;;5060407;28;20283;-86
2021/03/21 02:35:22;;;;;;;5.40;4.55;;;2.80;48.60;;;;;;5074067;28;20199;-87
2021/03/21 02:38:00;;;;;;;5.35;3.70;;;2.90;49.20;;;;;;5073375;28;20206;-86
2021/03/21 02:40:35;;;;;;;5.00;4.50;;;3.10;49.20;;;;;;5073869;28;20195;-86
2021/03/21 02:43:07;;;;;;;5.70;4.20;;;3.10;50.30;;;;;;5073236;28;20210;-87
2021/03/21 02:45:38;;;;;;;4.30;3.90;;;3.00;50.00;;;;;;5067082;28;20206;-86
2021/03/21 02:48:10;;;;;;;5.25;4.72;;;3.10;49.60;;;;;;5068282;28;20207;-87
2021/03/21 02:50:43;;;;;;;4.35;3.95;;;3.30;50.30;;;;;;5070180;28;20290;-86
2021/03/21 02:53:16;;;;;;;4.07;3.55;;;3.40;50.40;;;;;;5072668;28;20192;-86
2021/03/21 02:55:48;;;;;;;5.68;4.40;;;3.40;50.40;;;;;;5072796;28;20715;-86
2021/03/21 02:58:22;;;;;;;6.57;4.50;;;3.30;48.70;;;;;;5072537;28;20202;-86
2021/03/21 03:00:55;;;;;;;5.07;4.20;;;3.30;48.70;;;;;;5073397;28;20210;-87
2021/03/21 03:03:25;;;;;;;5.60;4.00;;;3.20;48.00;;;;;;5072500;28;20207;-86
2021/03/21 03:05:55;;;;;;;3.60;3.28;;;3.10;48.40;;;;;;5072943;28;20195;-86
2021/03/21 03:08:29;;;;;;;6.32;5.72;;;3.30;49.80;;;;;;5072968;28;20195;-86
2021/03/21 03:11:00;;;;;;;4.97;4.47;;;3.10;49.80;;;;;;5072909;28;20286;-86
2021/03/21 03:13:32;;;;;;;4.90;4.40;;;2.90;49.00;;;;;;5072895;28;20532;-86
2021/03/21 03:16:02;;;;;;;5.47;4.15;;;3.00;49.10;;;;;;5072294;28;20192;-86
2021/03/21 03:18:40;;;;;;;4.53;4.00;;;3.10;48.90;;;;;;5072750;28;20211;-87
2021/03/21 03:21:11;;;;;;;5.57;4.50;;;3.00;49.80;;;;;;5072748;28;20256;-86
2021/03/21 03:23:44;;;;;;;4.35;3.95;;;3.10;50.20;;;;;;5072729;28;20223;-87
2021/03/21 03:26:17;;;;;;;5.18;4.20;;;3.20;50.60;;;;;;5072420;28;20201;-86
2021/03/21 03:28:50;;;;;;;6.18;4.35;;;3.30;51.30;;;;;;5073427;28;20207;-86
2021/03/21 03:31:23;;;;;;;5.95;4.80;;;3.30;51.40;;;;;;5072504;28;20207;-87
2021/03/21 03:33:50;;;;;;;7.32;4.53;;;3.20;51.50;;;;;;5069393;28;20278;-86
2021/03/21 03:36:18;;;;;;;5.60;4.45;;;3.30;51.60;;;;;;5072481;28;20264;-86
2021/03/21 03:38:47;;;;;;;4.90;4.32;;;3.40;51.60;;;;;;5072481;28;20196;-86
2021/03/21 03:41:19;;;;;;;5.35;4.43;;;3.50;51.50;;;;;;5072387;28;20199;-85
2021/03/21 03:43:55;;;;;;;5.00;4.50;;;3.40;51.80;;;;;;5071431;28;20231;-86
2021/03/21 03:46:31;;;;;;;4.75;4.05;;;3.30;51.80;;;;;;5072187;28;20210;-86
2021/03/21 03:49:04;;;;;;;4.93;4.30;;;3.20;50.60;;;;;;5072440;28;20195;-86
2021/03/21 03:51:35;;;;;;;7.75;4.43;;;3.40;51.30;;;;;;5072462;28;20214;-86
2021/03/21 03:54:18;;;;;;;5.20;4.65;;;3.50;51.60;;;;;;5071928;28;20202;-86
2021/03/21 03:56:51;;;;;;;4.75;3.85;;;3.60;51.30;;;;;;5070404;28;20199;-86
2021/03/21 03:59:37;;;;;;;5.05;3.80;;;3.60;51.40;;;;;;5072185;28;20203;-86
2021/03/21 04:02:07;;;;;;;4.88;4.10;;;3.50;50.60;;;;;;5071797;28;20196;-87
2021/03/21 04:04:41;;;;;;;8.35;4.70;;;3.50;50.40;;;;;;5063463;28;20222;-87
2021/03/21 04:07:16;;;;;;;4.97;4.45;;;3.40;51.10;;;;;;5071865;28;20211;-86
2021/03/21 04:09:50;;;;;;;5.40;4.28;;;3.30;50.30;;;;;;5071233;28;20198;-87
2021/03/21 04:12:24;;;;;;;5.15;4.40;;;3.50;51.10;;;;;;5071531;28;20195;-87
2021/03/21 04:14:58;;;;;;;5.57;4.53;;;3.50;52.30;;;;;;5071786;28;20195;-86
2021/03/21 04:17:32;;;;;;;8.95;4.80;;;3.50;51.50;;;;;;5071090;28;20921;-86
2021/03/21 04:20:06;;;;;;;4.60;4.18;;;3.50;50.90;;;;;;5072199;28;20218;-87
2021/03/21 04:22:36;;;;;;;4.57;4.18;;;3.40;52.00;;;;;;5070973;28;20625;-86
2021/03/21 04:25:08;;;;;;;4.18;3.78;;;3.30;52.70;;;;;;5071510;28;20203;-86
2021/03/21 04:27:38;;;;;;;5.25;4.32;;;3.10;53.50;;;;;;5071557;28;20247;-87
2021/03/21 04:30:09;;;;;;;4.85;4.43;;;3.10;53.90;;;;;;5071535;28;20203;-86
2021/03/21 04:32:41;;;;;;;4.45;4.05;;;2.80;53.10;;;;;;5070898;28;20294;-86
2021/03/21 04:35:11;;;;;;;7.25;5.30;;;2.80;53.00;;;;;;5071349;28;20195;-86
2021/03/21 04:37:41;;;;;;;4.88;4.45;;;2.90;53.60;;;;;;5071721;28;20210;-87
2021/03/21 04:40:10;;;;;;;5.15;3.88;;;3.00;53.10;;;;;;5071369;28;20253;-87
2021/03/21 04:42:43;;;;;;;5.55;4.55;;;3.10;53.40;;;;;;5070611;28;20191;-86
2021/03/21 04:45:13;;;;;;;5.80;4.75;;;3.10;54.30;;;;;;5070997;28;20203;-87
2021/03/21 04:47:48;;;;;;;4.25;3.85;;;3.10;54.60;;;;;;5070975;28;20617;-87
2021/03/21 04:50:17;;;;;;;4.50;3.40;;;2.90;53.40;;;;;;5071324;28;20205;-86
2021/03/21 04:52:50;;;;;;;5.53;4.70;;;2.90;52.50;;;;;;5070079;28;20218;-87
2021/03/21 04:55:22;;;;;;;4.20;3.85;;;2.90;53.50;;;;;;5070205;28;20683;-87
2021/03/21 04:57:51;;;;;;;4.57;4.05;;;3.00;53.00;;;;;;5070745;28;20206;-86
2021/03/21 05:00:23;;;;;;;7.43;4.60;;;3.20;52.80;;;;;;5071021;28;20199;-86
2021/03/21 05:02:56;;;;;;;6.45;3.92;;;3.40;53.00;;;;;;5070400;28;20290;-87
2021/03/21 05:05:27;;;;;;;4.63;4.22;;;3.50;53.20;;;;;;5070622;28;20209;-86
2021/03/21 05:07:59;;;;;;;5.07;4.38;;;3.40;53.00;;;;;;5071573;28;20203;-87
2021/03/21 05:10:32;;;;;;;6.80;4.13;;;3.40;53.10;;;;;;5070407;28;20653;-86
2021/03/21 05:13:04;;;;;;;5.93;4.80;;;3.60;53.80;;;;;;5070427;28;20191;-86
2021/03/21 05:15:44;;;;;;;5.43;4.85;;;3.70;53.70;;;;;;5070703;28;20220;-85
2021/03/21 05:18:22;;;;;;;4.43;4.00;;;3.70;53.30;;;;;;5070584;28;20304;-87
2021/03/21 05:20:59;;;;;;;4.70;4.30;;;3.70;53.50;;;;;;5070989;28;20775;-87
2021/03/21 05:23:35;;;;;;;4.15;3.72;;;3.60;53.30;;;;;;5070205;28;20206;-87
2021/03/21 05:26:08;;;;;;;4.13;3.72;;;3.50;53.60;;;;;;5070080;28;20203;-87
2021/03/21 05:28:48;;;;;;;6.28;4.82;;;3.50;53.60;;;;;;5071058;28;20195;-87
2021/03/21 05:31:16;;;;;;;5.15;4.68;;;3.40;52.90;;;;;;5070876;28;20191;-86
2021/03/21 05:33:46;;;;;;;5.20;4.45;;;3.30;53.20;;;;;;5070332;28;20561;-87
2021/03/21 05:36:30;;;;;;;5.43;4.93;;;3.30;53.10;;;;;;5070883;28;20198;-86
2021/03/21 05:39:01;;;;;;;4.78;4.30;;;3.30;53.30;;;;;;5070676;28;20247;-86
2021/03/21 05:42:08;;;;;;;4.45;3.88;;;3.10;53.10;;;;;;5070512;28;20210;-86
2021/03/21 05:45:07;;;;;;;5.13;4.30;;;3.20;54.20;;;;;;5070040;28;20217;-85
2021/03/21 05:48:23;;;;;;;5.68;4.78;;;3.40;53.80;;;;;;5068717;28;20668;-87
2021/03/21 05:51:20;;;;;;;5.35;4.85;;;3.30;52.70;;;;;;5070721;28;20203;-87
2021/03/21 05:54:33;;;;;;;5.97;4.72;;;3.30;53.20;;;;;;5034499;28;20207;-86
2021/03/21 05:57:23;;;;;;;4.82;4.32;;;3.50;54.00;;;;;;5070521;28;20788;-86
2021/03/21 06:00:36;;;;;;;8.05;4.35;;;3.40;53.40;;;;;;5070100;28;20299;-86
2021/03/21 06:03:45;;;;;;;5.50;4.80;;;3.50;53.70;;;;;;5066864;28;20211;-86
2021/03/21 06:06:57;;;;;;;4.75;4.32;;;3.40;53.30;;;;;;5070579;28;20196;-86
2021/03/21 06:09:41;;;;;;;5.53;4.00;;;3.30;53.50;;;;;;5007736;28;20198;-86
2021/03/21 06:12:25;;;;;;;8.43;5.35;;;3.60;54.00;;;;;;5007474;28;20651;-86
2021/03/21 06:15:18;;;;;;;5.80;5.07;;;3.80;54.20;;;;;;5054981;28;20210;-86
2021/03/21 06:18:17;;;;;;;4.22;3.83;;;3.60;53.60;;;;;;5069823;28;20188;-87
2021/03/21 06:21:18;;;;;;;6.30;5.07;;;3.70;54.10;;;;;;5067360;28;20205;-86
2021/03/21 06:24:17;;;;;;;5.45;4.38;;;3.60;54.40;;;;;;5062535;28;20591;-86
2021/03/21 06:26:46;;;;;;;5.53;5.03;;;3.30;53.80;;;;;;5070385;28;20211;-86
2021/03/21 06:29:32;;;;;;;6.25;4.50;;;3.40;54.60;;;;;;5070436;28;20201;-85
2021/03/21 06:32:35;;;;;;;5.20;4.70;;;3.70;54.80;;;;;;5069777;28;20199;-86
2021/03/21 06:35:31;;;;;;;5.40;4.20;;;3.60;54.30;;;;;;5071680;28;20195;-86
2021/03/21 06:38:34;;;;;;;4.90;4.20;;;3.60;54.50;;;;;;5073377;28;20206;-86
2021/03/21 06:41:27;;;;;;;5.20;4.35;;;3.30;53.80;;;;;;5073093;28;20195;-87
2021/03/21 06:44:28;;;;;;;6.18;5.05;;;3.10;53.40;;;;;;5071527;28;20215;-86
2021/03/21 06:47:45;;;;;;;9.75;4.85;;;3.20;54.00;;;;;;5038177;28;20211;-86
2021/03/21 06:50:26;;;;;;;6.03;4.00;;;3.40;55.00;;;;;;5038800;28;20208;-86
2021/03/21 06:52:59;;;;;;;4.93;4.53;;;3.40;53.80;;;;;;5072974;28;20206;-86
2021/03/21 06:55:33;;;;;;;5.45;4.18;;;3.60;53.90;;;;;;5072790;28;20195;-87
2021/03/21 06:58:48;;;;;;;4.57;4.13;;;3.70;54.50;;;;;;5073065;28;20199;-86
2021/03/21 07:01:28;;;;;;;4.97;4.32;;;3.40;53.70;;;;;;5072792;28;20653;-86
2021/03/21 07:04:33;;;;;;;5.50;5.00;;;3.50;54.00;;;;;;5073055;28;20246;-87
2021/03/21 07:07:30;;;;;;;7.07;4.40;;;3.70;54.30;;;;;;5068242;28;20205;-86
2021/03/21 07:10:30;;;;;;;6.40;4.95;;;3.90;54.60;;;;;;5073329;28;20545;-86
2021/03/21 07:13:44;;;;;;;4.95;4.20;;;3.70;54.30;;;;;;5072479;28;20245;-86
2021/03/21 07:16:54;;;;;;;8.00;4.03;;;4.00;54.30;;;;;;5072273;28;20530;-87
2021/03/21 07:19:50;;;;;;;5.10;4.60;;;4.10;54.70;;;;;;5052730;28;20212;-86
2021/03/21 07:23:06;;;;;;;4.85;4.20;;;4.30;55.30;;;;;;5068649;28;20206;-86
2021/03/21 07:26:15;;;;;;;5.18;4.70;;;4.20;55.20;;;;;;5072695;28;20632;-86
2021/03/21 07:29:12;;;;;;;5.97;4.70;;;4.40;55.00;;;;;;5072439;28;20590;-86
2021/03/21 07:31:53;;;;;;;5.57;5.07;;;4.40;54.70;;;;;;5072846;28;20203;-87
2021/03/21 07:34:49;;;;;;;7.13;4.82;;;4.50;54.80;;;;;;5071907;28;20240;-86
2021/03/21 07:37:22;;;;;;;5.35;4.40;;;4.60;55.10;;;;;;5071794;28;20207;-87
2021/03/21 07:40:02;;;;;;;4.60;4.20;;;4.60;54.70;;;;;;5072016;28;20195;-86
2021/03/21 07:43:01;;;;;;;8.30;5.28;;;4.60;54.60;;;;;;5071970;28;20249;-85
2021/03/21 07:45:50;;;;;;;5.55;4.80;;;4.30;53.70;;;;;;5061411;28;20204;-86
2021/03/21 07:48:37;;;;;;;5.10;4.60;;;4.30;54.40;;;;;;5069193;28;20905;-86
2021/03/21 07:51:24;;;;;;;5.78;4.97;;;4.40;54.60;;;;;;5072148;28;20601;-86
2021/03/21 07:53:56;;;;;;;5.28;4.05;;;4.50;55.30;;;;;;5070600;28;20982;-87
2021/03/21 07:56:30;;;;;;;5.55;4.30;;;4.40;54.10;;;;;;5072207;28;20260;-86
2021/03/21 07:59:01;;;;;;;4.72;4.05;;;4.40;54.70;;;;;;5072288;28;20660;-87
2021/03/21 08:01:28;;;;;;;5.43;4.25;;;4.50;54.60;;;;;;5071918;28;20565;-85
2021/03/21 08:04:03;;;;;;;3.95;3.65;;;4.70;54.80;;;;;;5071336;28;20227;-86
2021/03/21 08:06:39;;;;;;;5.50;4.38;;;4.50;53.90;;;;;;5070650;28;20201;-86
2021/03/21 08:09:13;;;;;;;7.25;4.57;;;4.30;53.70;;;;;;5071548;28;20199;-86
2021/03/21 08:11:43;;;;;;;6.78;4.28;;;4.00;54.10;;;;;;5063208;28;20290;-86
2021/03/21 08:14:17;;;;;;;5.18;4.63;;;4.20;55.40;;;;;;5051876;28;20204;-86
2021/03/21 08:16:48;;;;;;;8.45;5.90;;;3.90;54.80;;;;;;5051876;28;20204;-86
2021/03/21 08:19:24;;;;;;;9.35;6.93;;;4.00;55.20;;;;;;5070868;28;20264;-85
2021/03/21 08:21:51;;;;;;;6.38;4.95;;;4.20;55.30;;;;;;5071296;28;20222;-87
2021/03/21 08:24:22;;;;;;;5.45;4.95;;;4.10;55.00;;;;;;5070273;28;20215;-86
2021/03/21 08:26:48;;;;;;;4.30;3.90;;;4.20;55.10;;;;;;5071220;28;20261;-86
2021/03/21 08:29:21;;;;;;;5.15;4.65;;;4.10;55.30;;;;;;5060349;28;20200;-87
2021/03/21 08:32:03;;;;;;;5.00;4.50;;;4.10;55.10;;;;;;5071426;28;20230;-87
2021/03/21 08:34:37;;;;;;;7.55;4.60;;;4.30;54.70;;;;;;5071124;28;20206;-87
2021/03/21 08:37:21;;;;;;;6.05;4.15;;;4.50;55.40;;;;;;5070738;28;20202;-87
2021/03/21 08:39:51;;;;;;;6.57;4.15;;;4.70;55.20;;;;;;5070669;28;20195;-86
2021/03/21 08:42:35;;;;;;;4.60;4.20;;;4.40;54.60;;;;;;5070626;28;20641;-87
2021/03/21 08:45:22;;;;;;;5.05;4.07;;;4.40;54.60;;;;;;5071003;28;20599;-88
2021/03/21 08:48:21;;;;;;;6.18;4.32;;;4.20;55.00;;;;;;5071093;28;20203;-87
2021/03/21 08:50:50;;;;;;;4.90;4.03;;;4.20;55.20;;;;;;5055465;28;20221;-87
2021/03/21 08:53:39;;;;;;;5.03;4.22;;;4.40;55.10;;;;;;5070030;28;20218;-84
2021/03/21 08:56:15;;;;;;;5.50;4.35;;;4.40;55.40;;;;;;5065527;28;20272;-87
2021/03/21 08:58:42;;;;;;;5.35;4.85;;;4.80;55.40;;;;;;5068803;28;20199;-86
2021/03/21 09:01:11;;;;;;;5.65;4.45;;;5.10;55.50;;;;;;5070607;28;20701;-87
2021/03/21 09:03:38;;;;;;;4.88;4.38;;;4.70;54.50;;;;;;5070266;28;20696;-87
2021/03/21 09:06:05;;;;;;;5.47;4.43;;;4.80;54.60;;;;;;5071105;28;20206;-87
2021/03/21 09:08:34;;;;;;;6.53;4.75;;;4.70;54.90;;;;;;5071023;28;20203;-87
2021/03/21 09:11:05;;;;;;;6.60;4.82;;;4.60;54.70;;;;;;5070774;28;20207;-87
2021/03/21 09:13:35;;;;;;;4.95;4.55;;;4.50;55.10;;;;;;5070651;28;20218;-87
2021/03/21 09:16:10;;;;;;;5.20;4.70;;;4.60;55.30;;;;;;5071169;28;20251;-87
2021/03/21 09:18:38;;;;;;;7.47;4.57;;;4.60;54.90;;;;;;5070934;28;20218;-87
2021/03/21 09:21:20;;;;;;;6.50;4.78;;;4.80;55.30;;;;;;5057842;28;20204;-88
2021/03/21 09:24:10;;;;;;;5.85;4.80;;;4.80;55.10;;;;;;5050167;28;20220;-87
2021/03/21 09:26:40;;;;;;;6.60;4.32;;;4.80;55.20;;;;;;5050838;28;20196;-87
2021/03/21 09:29:27;;;;;;;5.65;4.97;;;4.90;54.80;;;;;;5070199;28;20206;-87
2021/03/21 09:31:56;;;;;;;5.75;4.70;;;4.60;54.80;;;;;;5070616;28;20198;-88
2021/03/21 09:34:31;;;;;;;5.95;5.30;;;4.60;55.10;;;;;;5070901;28;20561;-88
2021/03/21 09:37:03;;;;;;;5.85;4.60;;;4.30;55.30;;;;;;5070830;28;20206;-87
2021/03/21 09:39:32;;;;;;;5.90;5.00;;;4.30;54.70;;;;;;5071151;28;20207;-86
2021/03/21 09:42:00;;;;;;;5.88;5.13;;;4.50;55.60;;;;;;5071098;28;20213;-87
2021/03/21 09:44:42;;;;;;;8.02;5.32;;;4.60;55.40;;;;;;5069999;28;20211;-88
2021/03/21 09:47:23;;;;;;;6.45;5.80;;;4.70;55.70;;;;;;5070708;28;20544;-87
2021/03/21 09:49:57;;;;;;;5.43;4.93;;;4.50;55.50;;;;;;5070927;28;20203;-87
2021/03/21 09:52:35;;;;;;;6.55;5.03;;;4.60;55.20;;;;;;5070367;28;20207;-87
2021/03/21 09:55:12;;;;;;;5.35;4.80;;;4.60;55.40;;;;;;5069605;28;20199;-87
2021/03/21 09:57:52;;;;;;;6.47;5.43;;;4.50;55.50;;;;;;5070660;28;20558;-87
2021/03/21 10:00:24;;;;;;;6.65;5.40;;;4.40;55.60;;;;;;5070811;28;20207;-88
2021/03/21 10:03:01;;;;;;;6.18;5.30;;;4.40;55.70;;;;;;5070474;28;20252;-87
2021/03/21 10:05:34;;;;;;;6.47;5.22;;;4.60;56.10;;;;;;5070310;28;20608;-87
2021/03/21 10:08:10;;;;;;;6.43;5.55;;;4.60;56.10;;;;;;5071304;28;20204;-87
2021/03/21 10:10:44;;;;;;;5.00;4.50;;;4.80;56.20;;;;;;5074250;28;20653;-87
2021/03/21 10:13:11;;;;;;;8.60;5.20;;;4.90;56.10;;;;;;5074138;28;20203;-87
2021/03/21 10:16:09;;;;;;;5.93;5.32;;;5.00;56.40;;;;;;5074118;28;20726;-88
2021/03/21 10:18:43;;;;;;;6.47;5.28;;;5.10;56.00;;;;;;5066352;28;20288;-87
2021/03/21 10:21:12;;;;;;;5.75;5.18;;;5.00;56.10;;;;;;5074364;28;20294;-87
2021/03/21 10:24:15;;;;;;;6.07;5.47;;;5.20;57.00;;;;;;5073824;28;20278;-86
2021/03/21 10:27:28;;;;;;;8.95;6.35;;;5.00;57.70;;;;;;5012098;28;20567;-87
2021/03/21 10:30:25;;;;;;;7.97;6.47;;;4.50;61.60;;;;;;5074315;28;20213;-86
2021/03/21 10:33:45;;;;;;;9.57;6.38;;;4.30;64.60;;;;;;5074159;28;20257;-87
2021/03/21 10:36:42;;;;;;;10.00;6.70;;;4.10;65.30;;;;;;5073812;28;20218;-88
2021/03/21 10:39:11;;;;;;;8.60;7.72;;;4.50;65.70;;;;;;5074084;28;20714;-87
2021/03/21 10:41:56;;;;;;;9.85;6.78;;;4.70;65.40;;;;;;5074096;28;20668;-87
2021/03/21 10:44:38;;;;;;;8.00;6.93;;;5.00;64.70;;;;;;5073615;28;20223;-88
2021/03/21 10:47:09;;;;;;;8.77;7.82;;;5.20;63.80;;;;;;5073896;28;20207;-87
2021/03/21 10:49:47;;;;;;;16.52;6.35;;;5.30;63.30;;;;;;5073696;28;20264;-87
2021/03/21 10:52:33;;;;;;;8.02;5.88;;;5.40;64.00;;;;;;5073907;28;20214;-88
2021/03/21 10:55:34;;;;;;;9.55;7.53;;;5.30;65.40;;;;;;5073136;28;20199;-88
2021/03/21 10:58:23;;;;;;;7.93;7.00;;;5.40;66.00;;;;;;5073635;28;20547;-88
2021/03/21 11:01:28;;;;;;;9.27;6.65;;;5.30;67.00;;;;;;5073686;28;20203;-87
2021/03/21 11:04:30;;;;;;;8.65;6.15;;;5.60;68.20;;;;;;5072815;28;20223;-87
2021/03/21 11:07:01;;;;;;;8.57;7.50;;;5.60;67.70;;;;;;5073540;28;20234;-87
2021/03/21 11:09:36;;;;;;;12.32;8.00;;;5.60;68.30;;;;;;5073117;28;20207;-87
2021/03/21 11:12:05;;;;;;;12.13;9.48;;;5.40;69.20;;;;;;5073310;28;20202;-87
2021/03/21 11:14:35;;;;;;;9.30;7.45;;;5.30;71.00;;;;;;5072956;28;20211;-87
2021/03/21 11:17:04;;;;;;;12.50;8.88;;;5.50;71.50;;;;;;5073681;28;20213;-87
2021/03/21 11:19:34;;;;;;;11.57;9.43;;;5.40;70.60;;;;;;5072575;28;20257;-86
2021/03/21 11:22:10;;;;;;;9.13;7.68;;;5.70;70.80;;;;;;5052745;28;20200;-87
2021/03/21 11:24:41;;;;;;;12.30;8.50;;;5.80;69.30;;;;;;5052318;28;20215;-87
2021/03/21 11:27:14;;;;;;;10.75;9.00;;;6.20;69.40;;;;;;5056101;28;20234;-88
2021/03/21 11:29:42;;;;;;;10.13;8.02;;;6.50;66.90;;;;;;5072904;28;20211;-88
2021/03/21 11:32:15;;;;;;;12.27;9.80;;;6.50;66.90;;;;;;5072967;28;20207;-88
2021/03/21 11:34:44;;;;;;;11.88;8.32;;;6.70;64.50;;;;;;5072343;28;20286;-88
2021/03/21 11:37:12;;;;;;;10.80;8.75;;;6.50;63.90;;;;;;5072769;28;20207;-87
2021/03/21 11:39:42;;;;;;;11.00;8.65;;;5.90;64.00;;;;;;5072727;28;20207;-87
2021/03/21 11:42:24;;;;;;;10.90;8.45;;;5.80;65.30;;;;;;5073020;28;20260;-87
2021/03/21 11:44:52;;;;;;;10.65;8.07;;;5.80;66.40;;;;;;5072557;28;20215;-85
2021/03/21 11:47:28;;;;;;;11.95;8.65;;;5.60;65.00;;;;;;5072570;28;20211;-88
2021/03/21 11:49:57;;;;;;;10.70;7.88;;;5.50;64.80;;;;;;5072847;28;20206;-86
2021/03/21 11:52:25;;;;;;;10.35;8.18;;;5.80;65.10;;;;;;5072361;28;20199;-87
2021/03/21 11:54:53;;;;;;;9.20;7.63;;;5.80;64.60;;;;;;5071906;28;20287;-87
2021/03/21 11:57:43;;;;;;;8.32;7.03;;;5.60;64.20;;;;;;5072760;28;20203;-88
2021/03/21 12:00:20;;;;;;;9.85;7.43;;;5.80;64.80;;;;;;5043609;28;20670;-88
2021/03/21 12:02:57;;;;;;;9.63;7.28;;;5.80;65.30;;;;;;5052329;28;20208;-88
2021/03/21 12:05:28;;;;;;;10.05;8.38;;;6.00;65.40;;;;;;5052328;28;20700;-87
2021/03/21 12:08:19;;;;;;;9.70;7.18;;;5.80;65.90;;;;;;5052629;28;20726;-87
2021/03/21 12:10:47;;;;;;;7.78;6.97;;;5.70;66.60;;;;;;5052366;28;20196;-87
2021/03/21 12:13:32;;;;;;;8.40;7.03;;;5.80;68.00;;;;;;5051982;28;20200;-88
2021/03/21 12:16:00;;;;;;;12.55;7.30;;;5.80;67.60;;;;;;5052277;28;20203;-87
2021/03/21 12:18:29;;;;;;;6.78;6.07;;;5.60;67.70;;;;;;5051989;28;20570;-87
2021/03/21 12:20:56;;;;;;;8.65;6.47;;;5.50;68.50;;;;;;5051797;28;20258;-87
2021/03/21 12:23:39;;;;;;;7.05;6.07;;;5.70;69.70;;;;;;5051839;28;20231;-87
2021/03/21 12:26:17;;;;;;;6.78;5.85;;;5.60;69.50;;;;;;5052245;28;20211;-88
2021/03/21 12:28:56;;;;;;;7.60;5.95;;;5.50;69.80;;;;;;5067994;28;20195;-87
2021/03/21 12:31:30;;;;;;;10.40;9.30;;;5.50;71.00;;;;;;5071183;28;20218;-87
2021/03/21 12:33:57;;;;;;;7.78;7.07;;;5.50;71.30;;;;;;5071388;28;20200;-87
2021/03/21 12:36:27;;;;;;;7.15;5.90;;;5.70;72.10;;;;;;5071251;28;20436;-88
2021/03/21 12:38:57;;;;;;;6.03;5.43;;;5.80;71.90;;;;;;5071441;28;20248;-87
2021/03/21 12:41:41;;;;;;;5.88;5.15;;;5.90;72.80;;;;;;5072100;28;20195;-88
2021/03/21 12:44:14;;;;;;;6.93;5.97;;;6.10;74.50;;;;;;5072472;28;20223;-87
2021/03/21 12:46:43;;;;;;;5.65;4.80;;;6.10;75.10;;;;;;5071763;28;20239;-88
2021/03/21 12:49:44;;;;;;;5.97;5.22;;;6.50;74.30;;;;;;5071544;28;20215;-87
2021/03/21 12:52:14;;;;;;;6.10;4.60;;;6.60;73.10;;;;;;5071633;28;20214;-88
2021/03/21 12:54:42;;;;;;;5.70;5.10;;;6.20;73.20;;;;;;5070779;28;20207;-87
2021/03/21 12:57:12;;;;;;;11.80;8.88;;;6.10;74.90;;;;;;5071560;28;20209;-87
2021/03/21 12:59:40;;;;;;;9.52;6.10;;;6.40;75.30;;;;;;5071368;28;20571;-87
2021/03/21 13:02:24;;;;;;;15.18;13.68;;;6.50;74.00;;;;;;5071329;28;20195;-87
2021/03/21 13:04:51;;;;;;;7.78;6.30;;;6.40;75.30;;;;;;5071516;28;20255;-88
2021/03/21 13:07:18;;;;;;;9.55;7.35;;;6.40;76.70;;;;;;5071357;28;20206;-88
2021/03/21 13:09:45;;;;;;;9.77;6.90;;;6.20;77.00;;;;;;5071204;28;20202;-87
2021/03/21 13:12:14;;;;;;;6.85;6.25;;;6.10;78.40;;;;;;5071240;28;20213;-87
2021/03/21 13:14:41;;;;;;;13.05;10.07;;;6.00;79.30;;;;;;5070948;28;20199;-88
2021/03/21 13:17:07;;;;;;;13.95;10.15;;;6.10;79.50;;;;;;5070931;28;20215;-87
2021/03/21 13:19:34;;;;;;;7.43;6.65;;;6.00;79.50;;;;;;5070898;28;20239;-87
2021/03/21 13:22:01;;;;;;;7.40;6.57;;;6.00;80.00;;;;;;5051363;28;20204;-88
2021/03/21 13:24:28;;;;;;;7.03;6.32;;;6.10;80.50;;;;;;5050892;28;20220;-87
2021/03/21 13:26:54;;;;;;;8.75;6.43;;;6.00;80.10;;;;;;5052134;28;20688;-87
2021/03/21 13:29:22;;;;;;;13.07;8.30;;;5.90;80.40;;;;;;5070724;28;20210;-87
2021/03/21 13:31:48;;;;;;;10.02;8.35;;;5.90;81.40;;;;;;5071474;28;20215;-87
2021/03/21 13:34:15;;;;;;;7.00;6.05;;;5.80;82.80;;;;;;5070841;28;20215;-87
2021/03/21 13:36:42;;;;;;;7.57;6.18;;;5.70;83.70;;;;;;5071945;28;20222;-88
2021/03/21 13:39:09;;;;;;;5.82;5.20;;;5.80;84.30;;;;;;5071788;28;20676;-86
2021/03/21 13:41:37;;;;;;;6.75;5.30;;;5.80;83.60;;;;;;5071693;28;20301;-88
2021/03/21 13:44:05;;;;;;;6.00;5.40;;;5.90;83.60;;;;;;5074694;28;20818;-87